sensor_id;sensor_type;location;lat;lon;timestamp;pressure;altitude;pressure_sealevel;temperature;humidity
35655;BME280;21773;50.010;19.972;2023-03-21T00:00:35;98693.44;;;14.59;63.99
35655;BME280;21773;50.010;19.972;2023-03-21T00:03:39;98705.41;;;14.63;64.02
35655;BME280;21773;50.010;19.972;2023-03-21T00:06:44;98709.47;;;14.61;64.05
35655;BME280;21773;50.010;19.972;2023-03-21T00:09:48;98710.84;;;14.63;64.34
35655;BME280;21773;50.010;19.972;2023-03-21T00:12:54;98704.03;;;14.61;64.46
35655;BME280;21773;50.010;19.972;2023-03-21T00:16:03;98703.69;;;14.57;64.68
35655;BME280;21773;50.010;19.972;2023-03-21T00:19:25;98700.09;;;14.52;64.97
35655;BME280;21773;50.010;19.972;2023-03-21T00:22:30;98696.09;;;14.54;64.54
35655;BME280;21773;50.010;19.972;2023-03-21T00:25:37;98695.25;;;14.54;64.79
35655;BME280;21773;50.010;19.972;2023-03-21T00:28:42;98697.22;;;14.58;64.47
35655;BME280;21773;50.010;19.972;2023-03-21T00:31:46;98690.16;;;14.57;64.67
35655;BME280;21773;50.010;19.972;2023-03-21T00:34:50;98666.34;;;14.43;64.33
35655;BME280;21773;50.010;19.972;2023-03-21T00:38:14;98685.38;;;14.64;64.19
35655;BME280;21773;50.010;19.972;2023-03-21T00:41:19;98680.41;;;14.61;63.97
35655;BME280;21773;50.010;19.972;2023-03-21T00:44:42;98683.78;;;14.68;63.86
35655;BME280;21773;50.010;19.972;2023-03-21T00:47:45;98681.81;;;14.64;63.98
35655;BME280;21773;50.010;19.972;2023-03-21T00:50:50;98684.22;;;14.60;64.31
35655;BME280;21773;50.010;19.972;2023-03-21T00:53:56;98681.53;;;14.60;64.29
35655;BME280;21773;50.010;19.972;2023-03-21T00:57:03;98681.25;;;14.62;64.28
35655;BME280;21773;50.010;19.972;2023-03-21T01:00:08;98685.84;;;14.61;64.37
35655;BME280;21773;50.010;19.972;2023-03-21T01:03:14;98675.50;;;14.58;64.01
35655;BME280;21773;50.010;19.972;2023-03-21T01:06:26;98670.03;;;14.53;64.20
35655;BME280;21773;50.010;19.972;2023-03-21T01:09:29;98675.44;;;14.53;64.38
35655;BME280;21773;50.010;19.972;2023-03-21T01:12:35;98674.06;;;14.51;63.98
35655;BME280;21773;50.010;19.972;2023-03-21T01:15:43;98668.06;;;14.49;64.36
35655;BME280;21773;50.010;19.972;2023-03-21T01:18:46;98670.47;;;14.45;64.38
35655;BME280;21773;50.010;19.972;2023-03-21T01:21:50;98665.47;;;14.37;64.42
35655;BME280;21773;50.010;19.972;2023-03-21T01:24:53;98673.19;;;14.45;64.22
35655;BME280;21773;50.010;19.972;2023-03-21T01:28:11;98673.66;;;14.42;64.28
35655;BME280;21773;50.010;19.972;2023-03-21T01:31:15;98670.13;;;14.42;64.14
35655;BME280;21773;50.010;19.972;2023-03-21T01:34:19;98673.66;;;14.42;64.05
35655;BME280;21773;50.010;19.972;2023-03-21T01:37:22;98669.81;;;14.38;64.39
35655;BME280;21773;50.010;19.972;2023-03-21T01:40:28;98680.31;;;14.35;64.52
35655;BME280;21773;50.010;19.972;2023-03-21T01:43:45;98676.06;;;14.39;64.19
35655;BME280;21773;50.010;19.972;2023-03-21T01:46:50;98683.66;;;14.37;64.20
35655;BME280;21773;50.010;19.972;2023-03-21T01:50:50;98675.84;;;14.40;64.18
35655;BME280;21773;50.010;19.972;2023-03-21T01:53:58;98681.75;;;14.37;64.26
35655;BME280;21773;50.010;19.972;2023-03-21T01:57:08;98673.94;;;14.41;64.05
35655;BME280;21773;50.010;19.972;2023-03-21T02:00:16;98679.66;;;14.44;63.92
35655;BME280;21773;50.010;19.972;2023-03-21T02:03:19;98675.91;;;14.45;63.71
35655;BME280;21773;50.010;19.972;2023-03-21T02:06:58;98675.69;;;14.52;63.68
35655;BME280;21773;50.010;19.972;2023-03-21T02:10:13;98682.88;;;14.63;63.15
35655;BME280;21773;50.010;19.972;2023-03-21T02:13:22;98671.03;;;14.69;62.70
35655;BME280;21773;50.010;19.972;2023-03-21T02:16:37;98660.13;;;14.64;62.65
35655;BME280;21773;50.010;19.972;2023-03-21T02:27:08;98673.88;;;14.79;62.18
35655;BME280;21773;50.010;19.972;2023-03-21T02:34:27;98664.91;;;14.79;62.17
35655;BME280;21773;50.010;19.972;2023-03-21T02:37:39;98672.53;;;14.82;61.88
35655;BME280;21773;50.010;19.972;2023-03-21T02:40:58;98667.91;;;14.82;61.73
35655;BME280;21773;50.010;19.972;2023-03-21T02:44:19;98672.59;;;14.87;61.72
35655;BME280;21773;50.010;19.972;2023-03-21T02:47:29;98665.03;;;14.89;61.73
35655;BME280;21773;50.010;19.972;2023-03-21T02:50:39;98666.09;;;14.88;61.76
35655;BME280;21773;50.010;19.972;2023-03-21T02:53:49;98661.72;;;14.87;61.98
35655;BME280;21773;50.010;19.972;2023-03-21T02:57:13;98662.56;;;14.87;62.01
35655;BME280;21773;50.010;19.972;2023-03-21T03:00:21;98671.22;;;14.84;62.51
35655;BME280;21773;50.010;19.972;2023-03-21T03:03:26;98669.25;;;14.80;62.39
35655;BME280;21773;50.010;19.972;2023-03-21T03:06:44;98646.84;;;14.67;62.86
35655;BME280;21773;50.010;19.972;2023-03-21T03:10:02;98667.31;;;14.75;63.46
35655;BME280;21773;50.010;19.972;2023-03-21T03:13:18;98666.44;;;14.69;63.78
35655;BME280;21773;50.010;19.972;2023-03-21T03:16:29;98665.38;;;14.70;63.95
35655;BME280;21773;50.010;19.972;2023-03-21T03:19:44;98666.91;;;14.66;64.18
35655;BME280;21773;50.010;19.972;2023-03-21T03:22:59;98665.03;;;14.45;65.01
35655;BME280;21773;50.010;19.972;2023-03-21T03:26:10;98667.38;;;14.37;65.53
35655;BME280;21773;50.010;19.972;2023-03-21T03:29:19;98672.28;;;14.40;65.74
35655;BME280;21773;50.010;19.972;2023-03-21T03:32:28;98672.13;;;14.46;65.71
35655;BME280;21773;50.010;19.972;2023-03-21T03:35:33;98666.13;;;14.44;66.04
35655;BME280;21773;50.010;19.972;2023-03-21T03:38:38;98665.88;;;14.46;65.60
35655;BME280;21773;50.010;19.972;2023-03-21T03:41:46;98677.22;;;14.43;65.95
35655;BME280;21773;50.010;19.972;2023-03-21T03:45:15;98667.94;;;14.39;66.24
35655;BME280;21773;50.010;19.972;2023-03-21T03:48:23;98670.41;;;14.40;66.22
35655;BME280;21773;50.010;19.972;2023-03-21T03:51:41;98659.16;;;14.31;66.23
35655;BME280;21773;50.010;19.972;2023-03-21T03:54:57;98676.38;;;14.42;66.54
35655;BME280;21773;50.010;19.972;2023-03-21T03:58:06;98670.72;;;14.44;66.29
35655;BME280;21773;50.010;19.972;2023-03-21T04:01:23;98671.53;;;14.44;66.18
35655;BME280;21773;50.010;19.972;2023-03-21T04:04:31;98680.25;;;14.46;66.36
35655;BME280;21773;50.010;19.972;2023-03-21T04:07:34;98680.75;;;14.43;66.30
35655;BME280;21773;50.010;19.972;2023-03-21T04:10:38;98680.50;;;14.45;66.14
35655;BME280;21773;50.010;19.972;2023-03-21T04:13:43;98677.72;;;14.40;66.21
35655;BME280;21773;50.010;19.972;2023-03-21T04:16:53;98676.06;;;14.39;66.49
35655;BME280;21773;50.010;19.972;2023-03-21T04:19:56;98675.53;;;14.37;66.27
35655;BME280;21773;50.010;19.972;2023-03-21T04:23:13;98675.00;;;14.40;66.33
35655;BME280;21773;50.010;19.972;2023-03-21T04:26:19;98655.78;;;14.24;66.53
35655;BME280;21773;50.010;19.972;2023-03-21T04:29:44;98664.75;;;14.25;66.68
35655;BME280;21773;50.010;19.972;2023-03-21T04:33:01;98672.28;;;14.23;67.12
35655;BME280;21773;50.010;19.972;2023-03-21T04:36:07;98667.31;;;14.15;67.69
35655;BME280;21773;50.010;19.972;2023-03-21T04:39:29;98671.09;;;14.14;67.70
35655;BME280;21773;50.010;19.972;2023-03-21T04:42:33;98667.81;;;14.12;67.75
35655;BME280;21773;50.010;19.972;2023-03-21T04:45:38;98678.66;;;14.12;67.55
35655;BME280;21773;50.010;19.972;2023-03-21T04:48:42;98676.72;;;14.07;67.77
35655;BME280;21773;50.010;19.972;2023-03-21T04:51:46;98658.88;;;13.95;68.04
35655;BME280;21773;50.010;19.972;2023-03-21T04:54:53;98680.28;;;14.13;67.73
35655;BME280;21773;50.010;19.972;2023-03-21T04:57:57;98684.09;;;14.12;67.93
35655;BME280;21773;50.010;19.972;2023-03-21T05:01:02;98684.09;;;14.12;67.67
35655;BME280;21773;50.010;19.972;2023-03-21T05:04:07;98683.50;;;14.10;67.53
35655;BME280;21773;50.010;19.972;2023-03-21T05:07:10;98680.28;;;14.13;67.40
35655;BME280;21773;50.010;19.972;2023-03-21T05:10:14;98688.50;;;14.18;67.15
35655;BME280;21773;50.010;19.972;2023-03-21T05:13:18;98678.75;;;14.17;67.14
35655;BME280;21773;50.010;19.972;2023-03-21T05:16:24;98683.00;;;14.13;66.97
35655;BME280;21773;50.010;19.972;2023-03-21T05:19:32;98683.00;;;14.13;67.20
35655;BME280;21773;50.010;19.972;2023-03-21T05:22:41;98685.47;;;14.14;67.00
35655;BME280;21773;50.010;19.972;2023-03-21T05:25:49;98687.66;;;14.17;66.69
35655;BME280;21773;50.010;19.972;2023-03-21T05:29:07;98688.84;;;14.21;66.63
35655;BME280;21773;50.010;19.972;2023-03-21T05:32:12;98688.09;;;14.26;66.61
35655;BME280;21773;50.010;19.972;2023-03-21T05:35:16;98687.81;;;14.27;66.31
35655;BME280;21773;50.010;19.972;2023-03-21T05:38:19;98693.50;;;14.26;65.94
35655;BME280;21773;50.010;19.972;2023-03-21T05:41:25;98688.72;;;14.33;65.80
35655;BME280;21773;50.010;19.972;2023-03-21T05:44:28;98700.38;;;14.33;65.53
35655;BME280;21773;50.010;19.972;2023-03-21T05:47:35;98707.78;;;14.38;65.46
35655;BME280;21773;50.010;19.972;2023-03-21T05:50:38;98705.91;;;14.39;65.18
35655;BME280;21773;50.010;19.972;2023-03-21T05:53:50;98714.28;;;14.37;65.05
35655;BME280;21773;50.010;19.972;2023-03-21T05:56:55;98695.88;;;14.22;65.24
35655;BME280;21773;50.010;19.972;2023-03-21T06:00:22;98720.81;;;14.36;65.22
35655;BME280;21773;50.010;19.972;2023-03-21T06:03:51;98716.66;;;14.33;64.62
35655;BME280;21773;50.010;19.972;2023-03-21T06:06:57;98723.72;;;14.35;63.90
35655;BME280;21773;50.010;19.972;2023-03-21T06:10:00;98718.28;;;14.35;64.13
35655;BME280;21773;50.010;19.972;2023-03-21T06:13:03;98715.69;;;14.40;63.58
35655;BME280;21773;50.010;19.972;2023-03-21T06:16:08;98706.78;;;14.44;63.68
35655;BME280;21773;50.010;19.972;2023-03-21T06:19:14;98712.06;;;14.34;63.42
35655;BME280;21773;50.010;19.972;2023-03-21T06:22:32;98715.75;;;14.28;63.34
35655;BME280;21773;50.010;19.972;2023-03-21T06:25:36;98715.59;;;14.35;63.22
35655;BME280;21773;50.010;19.972;2023-03-21T06:28:40;98716.81;;;14.44;63.57
35655;BME280;21773;50.010;19.972;2023-03-21T06:31:44;98717.06;;;14.42;63.50
35655;BME280;21773;50.010;19.972;2023-03-21T06:34:49;98708.44;;;14.45;63.21
35655;BME280;21773;50.010;19.972;2023-03-21T06:37:52;98711.22;;;14.50;63.01
35655;BME280;21773;50.010;19.972;2023-03-21T06:40:56;98708.50;;;14.50;62.44
35655;BME280;21773;50.010;19.972;2023-03-21T06:44:04;98712.34;;;14.54;62.09
35655;BME280;21773;50.010;19.972;2023-03-21T06:47:14;98717.28;;;14.57;61.61
35655;BME280;21773;50.010;19.972;2023-03-21T06:50:21;98718.09;;;14.58;61.27
35655;BME280;21773;50.010;19.972;2023-03-21T06:53:25;98728.69;;;14.59;61.31
35655;BME280;21773;50.010;19.972;2023-03-21T06:56:44;98721.81;;;14.52;60.66
35655;BME280;21773;50.010;19.972;2023-03-21T06:59:55;98721.63;;;14.58;60.55
35655;BME280;21773;50.010;19.972;2023-03-21T07:02:58;98718.41;;;14.61;60.62
35655;BME280;21773;50.010;19.972;2023-03-21T07:06:05;98718.69;;;14.60;60.41
35655;BME280;21773;50.010;19.972;2023-03-21T07:09:12;98727.94;;;14.64;60.29
35655;BME280;21773;50.010;19.972;2023-03-21T07:12:16;98722.84;;;14.67;59.92
35655;BME280;21773;50.010;19.972;2023-03-21T07:15:36;98723.78;;;14.78;59.75
35655;BME280;21773;50.010;19.972;2023-03-21T07:18:40;98725.03;;;14.92;59.25
35655;BME280;21773;50.010;19.972;2023-03-21T07:21:47;98723.56;;;15.06;58.68
35655;BME280;21773;50.010;19.972;2023-03-21T07:24:50;98717.47;;;15.21;58.00
35655;BME280;21773;50.010;19.972;2023-03-21T07:28:11;98721.28;;;15.47;57.35
35655;BME280;21773;50.010;19.972;2023-03-21T07:31:15;98720.28;;;15.85;56.35
35655;BME280;21773;50.010;19.972;2023-03-21T07:34:22;98713.28;;;16.31;55.48
35655;BME280;21773;50.010;19.972;2023-03-21T07:37:27;98715.47;;;16.86;52.76
35655;BME280;21773;50.010;19.972;2023-03-21T07:40:30;98717.19;;;17.02;51.63
35655;BME280;21773;50.010;19.972;2023-03-21T07:43:34;98712.66;;;17.43;51.25
35655;BME280;21773;50.010;19.972;2023-03-21T07:46:43;98715.72;;;17.77;49.17
35655;BME280;21773;50.010;19.972;2023-03-21T07:49:46;98723.59;;;17.94;49.43
35655;BME280;21773;50.010;19.972;2023-03-21T07:52:51;98723.91;;;17.87;49.38
35655;BME280;21773;50.010;19.972;2023-03-21T07:55:55;98712.16;;;17.82;49.69
35655;BME280;21773;50.010;19.972;2023-03-21T07:58:58;98724.72;;;17.83;49.12
35655;BME280;21773;50.010;19.972;2023-03-21T08:02:01;98721.16;;;17.62;48.65
35655;BME280;21773;50.010;19.972;2023-03-21T08:05:05;98719.22;;;17.52;49.27
35655;BME280;21773;50.010;19.972;2023-03-21T08:08:10;98721.41;;;17.65;48.96
35655;BME280;21773;50.010;19.972;2023-03-21T08:11:14;98718.97;;;18.04;47.92
35655;BME280;21773;50.010;19.972;2023-03-21T08:14:18;98726.03;;;18.41;47.07
35655;BME280;21773;50.010;19.972;2023-03-21T08:17:22;98722.88;;;18.88;45.45
35655;BME280;21773;50.010;19.972;2023-03-21T08:20:26;98727.91;;;19.25;45.00
35655;BME280;21773;50.010;19.972;2023-03-21T08:23:30;98728.97;;;19.29;43.27
35655;BME280;21773;50.010;19.972;2023-03-21T08:26:34;98734.47;;;19.24;43.47
35655;BME280;21773;50.010;19.972;2023-03-21T08:29:38;98726.38;;;19.03;43.87
35655;BME280;21773;50.010;19.972;2023-03-21T08:32:43;98733.03;;;18.77;44.78
35655;BME280;21773;50.010;19.972;2023-03-21T08:35:46;98723.03;;;18.37;45.94
35655;BME280;21773;50.010;19.972;2023-03-21T08:38:51;98732.06;;;18.07;47.21
35655;BME280;21773;50.010;19.972;2023-03-21T08:41:58;98740.00;;;17.84;47.70
35655;BME280;21773;50.010;19.972;2023-03-21T08:45:01;98735.81;;;17.46;48.81
35655;BME280;21773;50.010;19.972;2023-03-21T08:48:05;98742.84;;;17.26;49.72
35655;BME280;21773;50.010;19.972;2023-03-21T08:51:09;98748.53;;;17.05;51.03
35655;BME280;21773;50.010;19.972;2023-03-21T08:54:21;98738.59;;;16.78;52.20
35655;BME280;21773;50.010;19.972;2023-03-21T08:57:25;98748.09;;;16.71;53.19
35655;BME280;21773;50.010;19.972;2023-03-21T09:00:28;98757.75;;;16.57;53.31
35655;BME280;21773;50.010;19.972;2023-03-21T09:03:32;98760.97;;;16.43;54.10
35655;BME280;21773;50.010;19.972;2023-03-21T09:06:35;98765.53;;;16.38;54.66
35655;BME280;21773;50.010;19.972;2023-03-21T09:09:40;98764.75;;;16.42;55.12
35655;BME280;21773;50.010;19.972;2023-03-21T09:12:43;98761.03;;;16.54;55.00
35655;BME280;21773;50.010;19.972;2023-03-21T09:15:47;98755.03;;;16.57;54.18
35655;BME280;21773;50.010;19.972;2023-03-21T09:18:50;98763.97;;;16.89;54.01
35655;BME280;21773;50.010;19.972;2023-03-21T09:21:56;98755.41;;;17.27;52.59
35655;BME280;21773;50.010;19.972;2023-03-21T09:25:02;98761.50;;;17.70;51.96
35655;BME280;21773;50.010;19.972;2023-03-21T09:28:08;98761.53;;;18.10;50.05
35655;BME280;21773;50.010;19.972;2023-03-21T09:31:11;98762.34;;;18.16;49.39
35655;BME280;21773;50.010;19.972;2023-03-21T09:34:17;98762.63;;;18.09;49.96
35655;BME280;21773;50.010;19.972;2023-03-21T09:37:20;98764.53;;;18.09;49.36
35655;BME280;21773;50.010;19.972;2023-03-21T09:40:35;98768.63;;;18.06;49.90
35655;BME280;21773;50.010;19.972;2023-03-21T09:43:52;98758.25;;;18.03;50.30
35655;BME280;21773;50.010;19.972;2023-03-21T09:47:03;98765.91;;;17.96;50.04
35655;BME280;21773;50.010;19.972;2023-03-21T09:50:13;98760.97;;;18.03;50.09
35655;BME280;21773;50.010;19.972;2023-03-21T09:53:23;98765.63;;;18.03;49.42
35655;BME280;21773;50.010;19.972;2023-03-21T09:56:29;98749.53;;;18.01;48.40
35655;BME280;21773;50.010;19.972;2023-03-21T09:59:36;98764.53;;;17.99;49.37
35655;BME280;21773;50.010;19.972;2023-03-21T10:02:42;98758.53;;;17.92;49.06
35655;BME280;21773;50.010;19.972;2023-03-21T10:05:50;98761.00;;;17.83;50.07
35655;BME280;21773;50.010;19.972;2023-03-21T10:09:02;98751.69;;;17.74;50.75
35655;BME280;21773;50.010;19.972;2023-03-21T10:12:23;98756.88;;;17.65;50.55
35655;BME280;21773;50.010;19.972;2023-03-21T10:15:31;98764.16;;;17.45;51.22
35655;BME280;21773;50.010;19.972;2023-03-21T10:18:35;98754.59;;;17.32;51.26
35655;BME280;21773;50.010;19.972;2023-03-21T10:21:42;98763.59;;;17.32;51.67
35655;BME280;21773;50.010;19.972;2023-03-21T10:25:06;98764.63;;;17.21;51.88
35655;BME280;21773;50.010;19.972;2023-03-21T10:28:16;98763.84;;;17.31;51.46
35655;BME280;21773;50.010;19.972;2023-03-21T10:31:22;98755.16;;;17.39;50.70
35655;BME280;21773;50.010;19.972;2023-03-21T10:34:32;98757.59;;;17.41;49.39
35655;BME280;21773;50.010;19.972;2023-03-21T10:37:38;98759.75;;;17.28;49.15
35655;BME280;21773;50.010;19.972;2023-03-21T10:40:43;98764.38;;;17.23;48.41
35655;BME280;21773;50.010;19.972;2023-03-21T10:44:04;98761.91;;;17.26;48.57
35655;BME280;21773;50.010;19.972;2023-03-21T10:47:08;98758.66;;;17.24;48.36
35655;BME280;21773;50.010;19.972;2023-03-21T10:50:15;98766.53;;;17.21;48.99
35655;BME280;21773;50.010;19.972;2023-03-21T10:53:21;98762.69;;;17.12;49.25
35655;BME280;21773;50.010;19.972;2023-03-21T10:56:26;98755.03;;;17.04;49.35
35655;BME280;21773;50.010;19.972;2023-03-21T10:59:38;98764.91;;;17.15;49.64
35655;BME280;21773;50.010;19.972;2023-03-21T11:02:47;98765.13;;;17.03;49.09
35655;BME280;21773;50.010;19.972;2023-03-21T11:05:52;98769.41;;;16.84;49.25
35655;BME280;21773;50.010;19.972;2023-03-21T11:09:03;98760.72;;;16.92;48.81
35655;BME280;21773;50.010;19.972;2023-03-21T11:12:10;98757.69;;;16.83;49.08
35655;BME280;21773;50.010;19.972;2023-03-21T11:15:25;98761.31;;;17.04;49.45
35655;BME280;21773;50.010;19.972;2023-03-21T11:18:33;98766.25;;;17.12;49.38
35655;BME280;21773;50.010;19.972;2023-03-21T11:21:42;98760.03;;;17.32;49.24
35655;BME280;21773;50.010;19.972;2023-03-21T11:24:49;98763.56;;;17.27;48.93
35655;BME280;21773;50.010;19.972;2023-03-21T11:27:54;98752.91;;;17.21;48.15
35655;BME280;21773;50.010;19.972;2023-03-21T11:31:00;98760.03;;;17.32;48.22
35655;BME280;21773;50.010;19.972;2023-03-21T11:34:06;98751.31;;;17.25;48.46
35655;BME280;21773;50.010;19.972;2023-03-21T11:37:17;98752.94;;;17.26;48.77
35655;BME280;21773;50.010;19.972;2023-03-21T11:40:23;98751.59;;;17.33;47.94
35655;BME280;21773;50.010;19.972;2023-03-21T11:43:29;98749.41;;;17.36;47.90
35655;BME280;21773;50.010;19.972;2023-03-21T11:46:39;98735.78;;;17.36;47.54
35655;BME280;21773;50.010;19.972;2023-03-21T11:49:44;98751.63;;;17.44;48.23
35655;BME280;21773;50.010;19.972;2023-03-21T11:53:02;98749.97;;;17.32;48.61
35655;BME280;21773;50.010;19.972;2023-03-21T11:56:19;98743.13;;;17.35;48.16
35655;BME280;21773;50.010;19.972;2023-03-21T11:59:34;98743.69;;;17.37;48.45
35655;BME280;21773;50.010;19.972;2023-03-21T12:03:05;98733.03;;;17.25;47.88
35655;BME280;21773;50.010;19.972;2023-03-21T12:06:22;98744.22;;;17.24;48.63
35655;BME280;21773;50.010;19.972;2023-03-21T12:09:36;98746.94;;;17.19;48.99
35655;BME280;21773;50.010;19.972;2023-03-21T12:12:45;98744.44;;;17.07;48.52
35655;BME280;21773;50.010;19.972;2023-03-21T12:15:58;98734.88;;;17.00;48.99
35655;BME280;21773;50.010;19.972;2023-03-21T12:19:32;98737.06;;;17.03;48.80
35655;BME280;21773;50.010;19.972;2023-03-21T12:22:51;98728.34;;;17.06;48.34
35655;BME280;21773;50.010;19.972;2023-03-21T12:26:08;98731.38;;;17.09;48.29
35655;BME280;21773;50.010;19.972;2023-03-21T12:29:33;98725.09;;;17.04;47.95
35655;BME280;21773;50.010;19.972;2023-03-21T12:32:57;98728.13;;;17.17;47.79
35655;BME280;21773;50.010;19.972;2023-03-21T12:36:15;98717.53;;;17.36;47.94
35655;BME280;21773;50.010;19.972;2023-03-21T12:39:26;98726.00;;;17.35;47.26
35655;BME280;21773;50.010;19.972;2023-03-21T12:42:46;98721.63;;;17.28;47.33
35655;BME280;21773;50.010;19.972;2023-03-21T12:45:57;98717.00;;;17.29;47.23
35655;BME280;21773;50.010;19.972;2023-03-21T12:49:05;98715.03;;;17.14;47.43
35655;BME280;21773;50.010;19.972;2023-03-21T12:52:15;98726.47;;;17.11;47.00
35655;BME280;21773;50.010;19.972;2023-03-21T12:55:22;98720.44;;;16.99;47.52
35655;BME280;21773;50.010;19.972;2023-03-21T12:58:28;98718.53;;;17.00;47.92
35655;BME280;21773;50.010;19.972;2023-03-21T13:01:35;98715.28;;;17.03;47.99
35655;BME280;21773;50.010;19.972;2023-03-21T13:04:44;98716.34;;;16.97;47.93
35655;BME280;21773;50.010;19.972;2023-03-21T13:07:53;98713.34;;;16.98;47.67
35655;BME280;21773;50.010;19.972;2023-03-21T13:11:02;98724.25;;;17.03;47.42
35655;BME280;21773;50.010;19.972;2023-03-21T13:14:11;98721.28;;;17.05;48.09
35655;BME280;21773;50.010;19.972;2023-03-21T13:17:21;98720.41;;;16.89;49.68
35655;BME280;21773;50.010;19.972;2023-03-21T13:20:34;98710.00;;;16.76;50.27
35655;BME280;21773;50.010;19.972;2023-03-21T13:23:55;98718.59;;;16.58;51.46
35655;BME280;21773;50.010;19.972;2023-03-21T13:27:03;98710.66;;;16.46;52.10
35655;BME280;21773;50.010;19.972;2023-03-21T13:30:19;98706.81;;;16.47;52.82
35655;BME280;21773;50.010;19.972;2023-03-21T13:33:28;98704.63;;;16.44;52.86
35655;BME280;21773;50.010;19.972;2023-03-21T13:36:34;98706.78;;;16.37;52.83
35655;BME280;21773;50.010;19.972;2023-03-21T13:39:44;98702.16;;;16.37;53.06
35655;BME280;21773;50.010;19.972;2023-03-21T13:42:51;98707.63;;;16.42;53.40
35655;BME280;21773;50.010;19.972;2023-03-21T13:45:55;98703.78;;;16.38;52.75
35655;BME280;21773;50.010;19.972;2023-03-21T13:49:00;98698.34;;;16.38;52.83
35655;BME280;21773;50.010;19.972;2023-03-21T13:52:24;98701.09;;;16.43;52.70
35655;BME280;21773;50.010;19.972;2023-03-21T13:55:30;98692.91;;;16.38;52.49
35655;BME280;21773;50.010;19.972;2023-03-21T13:58:50;98693.19;;;16.37;52.62
35655;BME280;21773;50.010;19.972;2023-03-21T14:01:58;98704.91;;;16.42;53.02
35655;BME280;21773;50.010;19.972;2023-03-21T14:05:06;98701.63;;;16.40;53.09
35655;BME280;21773;50.010;19.972;2023-03-21T14:08:16;98696.72;;;16.42;53.01
35655;BME280;21773;50.010;19.972;2023-03-21T14:11:39;98692.88;;;16.33;52.64
35655;BME280;21773;50.010;19.972;2023-03-21T14:14:50;98698.31;;;16.33;52.89
35655;BME280;21773;50.010;19.972;2023-03-21T14:17:57;98693.91;;;16.27;53.11
35655;BME280;21773;50.010;19.972;2023-03-21T14:21:20;98699.00;;;16.14;54.47
35655;BME280;21773;50.010;19.972;2023-03-21T14:24:25;98699.78;;;16.09;55.33
35655;BME280;21773;50.010;19.972;2023-03-21T14:27:33;98701.97;;;16.07;56.22
35655;BME280;21773;50.010;19.972;2023-03-21T14:30:39;98707.34;;;15.97;55.88
35655;BME280;21773;50.010;19.972;2023-03-21T14:33:46;98716.63;;;16.01;56.67
35655;BME280;21773;50.010;19.972;2023-03-21T14:36:51;98712.22;;;15.95;55.86
35655;BME280;21773;50.010;19.972;2023-03-21T14:40:04;98701.81;;;15.87;55.92
35655;BME280;21773;50.010;19.972;2023-03-21T14:43:11;98715.28;;;15.72;56.78
35655;BME280;21773;50.010;19.972;2023-03-21T14:46:14;98713.84;;;15.64;56.81
35655;BME280;21773;50.010;19.972;2023-03-21T14:49:23;98702.38;;;15.57;57.26
35655;BME280;21773;50.010;19.972;2023-03-21T14:52:30;98708.59;;;15.52;57.78
35655;BME280;21773;50.010;19.972;2023-03-21T14:55:40;98699.03;;;15.50;58.80
35655;BME280;21773;50.010;19.972;2023-03-21T14:58:46;98709.19;;;15.59;59.03
35655;BME280;21773;50.010;19.972;2023-03-21T15:01:51;98699.16;;;15.60;59.04
35655;BME280;21773;50.010;19.972;2023-03-21T15:04:57;98706.53;;;15.65;58.73
35655;BME280;21773;50.010;19.972;2023-03-21T15:08:11;98712.78;;;15.65;58.33
35655;BME280;21773;50.010;19.972;2023-03-21T15:11:16;98706.53;;;15.65;58.25
35655;BME280;21773;50.010;19.972;2023-03-21T15:14:24;98707.91;;;15.67;58.71
35655;BME280;21773;50.010;19.972;2023-03-21T15:17:28;98693.56;;;15.72;58.79
35655;BME280;21773;50.010;19.972;2023-03-21T15:20:35;98696.00;;;15.73;58.57
35655;BME280;21773;50.010;19.972;2023-03-21T15:23:41;98695.53;;;15.81;58.58
35655;BME280;21773;50.010;19.972;2023-03-21T15:26:48;98695.00;;;15.84;57.92
35655;BME280;21773;50.010;19.972;2023-03-21T15:29:53;98671.81;;;15.72;57.72
35655;BME280;21773;50.010;19.972;2023-03-21T15:33:04;98690.63;;;15.83;57.89
35655;BME280;21773;50.010;19.972;2023-03-21T15:36:09;98691.16;;;15.80;58.12
35655;BME280;21773;50.010;19.972;2023-03-21T15:39:14;98687.34;;;15.76;58.96
35655;BME280;21773;50.010;19.972;2023-03-21T15:42:28;98694.97;;;15.79;59.06
35655;BME280;21773;50.010;19.972;2023-03-21T15:45:33;98695.78;;;15.80;58.60
35655;BME280;21773;50.010;19.972;2023-03-21T15:48:47;98689.53;;;15.79;58.49
35655;BME280;21773;50.010;19.972;2023-03-21T15:51:57;98691.38;;;15.74;58.45
35655;BME280;21773;50.010;19.972;2023-03-21T15:55:00;98695.72;;;15.75;58.65
35655;BME280;21773;50.010;19.972;2023-03-21T15:58:06;98702.78;;;15.71;58.82
35655;BME280;21773;50.010;19.972;2023-03-21T16:01:17;98703.25;;;15.63;58.91
35655;BME280;21773;50.010;19.972;2023-03-21T16:04:21;98697.00;;;15.62;59.19
35655;BME280;21773;50.010;19.972;2023-03-21T16:07:25;98692.88;;;15.59;59.38
35655;BME280;21773;50.010;19.972;2023-03-21T16:11:07;98700.50;;;15.57;59.42
35655;BME280;21773;50.010;19.972;2023-03-21T16:14:11;98703.72;;;15.54;59.71
35655;BME280;21773;50.010;19.972;2023-03-21T16:17:26;98705.28;;;15.50;60.02
35655;BME280;21773;50.010;19.972;2023-03-21T16:20:33;98707.13;;;15.45;60.16
35655;BME280;21773;50.010;19.972;2023-03-21T16:23:37;98696.50;;;15.38;60.07
35655;BME280;21773;50.010;19.972;2023-03-21T16:26:43;98697.97;;;15.24;60.39
35655;BME280;21773;50.010;19.972;2023-03-21T16:29:48;98709.38;;;15.26;60.58
35655;BME280;21773;50.010;19.972;2023-03-21T16:32:54;98697.16;;;15.24;61.29
35655;BME280;21773;50.010;19.972;2023-03-21T16:35:58;98710.72;;;15.24;61.35
35655;BME280;21773;50.010;19.972;2023-03-21T16:39:10;98696.78;;;15.15;62.14